Time;durP1;ratioP1;P1;durP2;ratioP2;P2;SDS_P1;SDS_P2;PMS_P1;PMS_P2;Temp;Humidity;BMP_temperature;BMP_pressure;BME280_temperature;BME280_humidity;BME280_pressure;Samples;Min_cycle;Max_cycle;Signal;HPM_P1;HPM_P2
2022/05/08 00:01:12;;;;;;;;;;;;;;;12.15;57.06;101542.06;5033036;28;1991;-96
2022/05/08 00:03:38;;;;;;;;;;;;;;;12.14;57.14;101540.38;5028559;28;2450;-96
2022/05/08 00:06:10;;;;;;;;;;;;;;;12.14;57.10;101547.66;5027915;28;2432;-95
2022/05/08 00:08:36;;;;;;;;;;;;;;;12.11;57.01;101542.66;5034368;28;2641;-96
2022/05/08 00:11:03;;;;;;;;;;;;;;;12.10;56.92;101544.53;5020126;28;2110;-96
2022/05/08 00:13:31;;;;;;;;;;;;;;;12.10;56.77;101554.50;5024002;28;2079;-96
2022/05/08 00:15:59;;;;;;;;;;;;;;;12.09;56.86;101558.22;5021752;28;1979;-96
2022/05/08 00:18:26;;;;;;;;;;;;;;;12.07;57.04;101555.75;5013131;28;2404;-96
2022/05/08 00:20:52;;;;;;;;;;;;;;;12.07;56.76;101560.31;5029539;28;1434;-96
2022/05/08 00:23:19;;;;;;;;;;;;;;;12.04;56.77;101561.56;5017671;28;4687;-96
2022/05/08 00:25:45;;;;;;;;;;;;;;;12.04;56.88;101564.25;5024547;28;2348;-96
2022/05/08 00:28:12;;;;;;;;;;;;;;;12.01;56.93;101560.09;5031061;28;2132;-96
2022/05/08 00:30:38;;;;;;;;;;;;;;;12.00;56.73;101568.38;5043853;28;2370;-96
2022/05/08 00:33:05;;;;;;;;;;;;;;;11.99;56.79;101564.03;5016867;28;1846;-96
2022/05/08 00:35:31;;;;;;;;;;;;;;;11.98;56.73;101567.78;5017653;28;2096;-96
2022/05/08 00:37:58;;;;;;;;;;;;;;;11.96;56.70;101569.84;5031323;28;2336;-96
2022/05/08 00:40:25;;;;;;;;;;;;;;;11.95;56.73;101571.72;5023706;28;1173;-95
2022/05/08 00:42:51;;;;;;;;;;;;;;;11.93;56.69;101576.47;5015899;28;2114;-95
2022/05/08 00:45:18;;;;;;;;;;;;;;;11.94;56.76;101569.22;5017716;28;1501;-95
2022/05/08 00:47:46;;;;;;;;;;;;;;;11.92;56.86;101576.69;5023687;28;2304;-96
2022/05/08 00:50:13;;;;;;;;;;;;;;;11.91;56.82;101583.13;5024654;28;2024;-95
2022/05/08 00:52:39;;;;;;;;;;;;;;;11.89;56.57;101577.94;5022728;28;2432;-96
2022/05/08 00:55:06;;;;;;;;;;;;;;;11.88;56.63;101587.03;5022909;28;2334;-96
2022/05/08 00:57:33;;;;;;;;;;;;;;;11.87;56.60;101589.97;5027136;28;2371;-96
2022/05/08 00:59:59;;;;;;;;;;;;;;;11.85;56.60;101582.06;5039279;28;2095;-95
2022/05/08 01:02:26;;;;;;;;;;;;;;;11.84;56.64;101588.47;5033817;28;1356;-96
2022/05/08 01:04:52;;;;;;;;;;;;;;;11.82;56.61;101593.22;5028604;28;2246;-96
2022/05/08 01:07:21;;;;;;;;;;;;;;;11.82;56.76;101585.13;5022589;28;2344;-96
2022/05/08 01:09:48;;;;;;;;;;;;;;;11.79;56.78;101588.22;5027998;28;4721;-96
2022/05/08 01:12:14;;;;;;;;;;;;;;;11.78;56.75;101600.91;5030154;28;2343;-96
2022/05/08 01:14:41;;;;;;;;;;;;;;;11.78;56.48;101594.69;5015833;28;1486;-96
2022/05/08 01:17:07;;;;;;;;;;;;;;;11.76;56.68;101596.75;5024943;28;1918;-96
2022/05/08 01:19:34;;;;;;;;;;;;;;;11.75;56.50;101600.47;5025548;28;2059;-96
2022/05/08 01:22:00;;;;;;;;;;;;;;;11.73;56.59;101594.44;5029202;28;1195;-96
2022/05/08 01:24:27;;;;;;;;;;;;;;;11.72;56.77;101600.88;5017244;28;4121;-96
2022/05/08 01:26:54;;;;;;;;;;;;;;;11.70;56.66;101608.34;5028659;28;2253;-96
2022/05/08 01:29:20;;;;;;;;;;;;;;;11.70;56.61;101613.75;5022426;28;2036;-96
2022/05/08 01:31:47;;;;;;;;;;;;;;;11.68;56.51;101607.72;5032092;28;1341;-96
2022/05/08 01:34:13;;;;;;;;;;;;;;;11.66;56.57;101615.19;5028499;28;1753;-95
2022/05/08 01:36:41;;;;;;;;;;;;;;;11.65;56.67;101610.81;5034183;28;1981;-96
2022/05/08 01:39:08;;;;;;;;;;;;;;;11.64;56.53;101614.53;5030231;28;2666;-96
2022/05/08 01:41:34;;;;;;;;;;;;;;;11.62;56.50;101624.69;5034453;28;1802;-96
2022/05/08 01:44:01;;;;;;;;;;;;;;;11.60;56.59;101628.44;5028938;28;2186;-96
2022/05/08 01:46:27;;;;;;;;;;;;;;;11.59;56.48;101624.09;5035154;28;1434;-96
2022/05/08 01:48:53;;;;;;;;;;;;;;;11.58;56.53;101630.50;5031925;28;4838;-96
2022/05/08 01:51:22;;;;;;;;;;;;;;;11.56;56.49;101631.75;5023795;28;2024;-96
2022/05/08 01:53:49;;;;;;;;;;;;;;;11.55;56.45;101638.16;5044217;28;1859;-95
2022/05/08 01:56:15;;;;;;;;;;;;;;;11.53;56.47;101643.78;5018847;28;1922;-96
2022/05/08 01:58:42;;;;;;;;;;;;;;;11.50;56.53;101636.09;5023516;28;4937;-96
2022/05/08 02:01:09;;;;;;;;;;;;;;;11.50;56.47;101646.88;5042907;28;1557;-96
2022/05/08 02:03:35;;;;;;;;;;;;;;;11.48;56.71;101648.94;5035889;28;1712;-96
2022/05/08 02:06:03;;;;;;;;;;;;;;;11.47;56.54;101652.66;5036292;28;1480;-96
2022/05/08 02:08:29;;;;;;;;;;;;;;;11.45;56.62;101649.31;5027855;28;4637;-96
2022/05/08 02:10:56;;;;;;;;;;;;;;;11.44;56.52;101646.81;5029736;28;3423;-96
2022/05/08 02:13:22;;;;;;;;;;;;;;;11.43;56.46;101658.66;5031785;28;1899;-94
2022/05/08 02:15:49;;;;;;;;;;;;;;;11.42;56.42;101662.38;5024584;28;1914;-96
2022/05/08 02:18:15;;;;;;;;;;;;;;;11.39;56.50;101662.78;5033913;28;2591;-96
2022/05/08 02:20:42;;;;;;;;;;;;;;;11.39;56.54;101660.09;5033275;28;1963;-96
2022/05/08 02:23:08;;;;;;;;;;;;;;;11.36;56.52;101670.22;5030988;28;4496;-96
2022/05/08 02:25:35;;;;;;;;;;;;;;;11.36;56.41;101666.69;5028380;28;1330;-96
2022/05/08 02:28:02;;;;;;;;;;;;;;;11.33;56.49;101664.41;5018417;28;2399;-96
2022/05/08 02:30:28;;;;;;;;;;;;;;;11.32;56.51;101665.41;5021898;28;1458;-96
2022/05/08 02:32:55;;;;;;;;;;;;;;;11.31;56.54;101663.75;5024268;28;2585;-96
2022/05/08 02:35:22;;;;;;;;;;;;;;;11.29;56.39;101668.50;5031156;28;1987;-96
2022/05/08 02:37:50;;;;;;;;;;;;;;;11.27;56.40;101671.41;5032508;28;4940;-96
2022/05/08 02:40:16;;;;;;;;;;;;;;;11.25;56.32;101672.63;5035049;28;1907;-96
2022/05/08 02:42:43;;;;;;;;;;;;;;;11.25;56.43;101672.63;5028118;28;2333;-95
2022/05/08 02:45:10;;;;;;;;;;;;;;;11.22;56.46;101673.03;5033463;28;1520;-96
2022/05/08 02:47:36;;;;;;;;;;;;;;;11.21;56.30;101676.78;5035264;28;1623;-96
2022/05/08 02:50:03;;;;;;;;;;;;;;;11.20;56.44;101680.47;5027294;28;2826;-96
2022/05/08 02:52:29;;;;;;;;;;;;;;;11.18;56.49;101688.78;5029880;28;2154;-96
2022/05/08 02:54:56;;;;;;;;;;;;;;;11.17;56.39;101694.34;5023478;28;5154;-95
2022/05/08 03:00:07;;;;;;;;;;;;;;;11.13;56.31;101694.75;5033731;28;1476;-96
2022/05/08 03:02:33;;;;;;;;;;;;;;;11.12;56.26;101705.75;5035336;28;1809;-96
2022/05/08 03:05:00;;;;;;;;;;;;;;;11.10;56.32;101711.31;5041911;28;2880;-96
2022/05/08 03:07:26;;;;;;;;;;;;;;;11.08;56.38;101701.75;5036062;28;1171;-96
2022/05/08 03:09:53;;;;;;;;;;;;;;;11.08;56.34;101707.13;5028950;28;4997;-96
2022/05/08 03:12:19;;;;;;;;;;;;;;;11.05;56.39;101711.06;5036868;28;1226;-95
2022/05/08 03:14:46;;;;;;;;;;;;;;;11.04;56.28;101712.09;5034593;28;2372;-96
2022/05/08 03:17:13;;;;;;;;;;;;;;;11.03;56.25;101721.22;5034526;28;2162;-96
2022/05/08 03:19:40;;;;;;;;;;;;;;;11.02;56.25;101730.31;5026190;28;2764;-96
2022/05/08 03:22:06;;;;;;;;;;;;;;;11.00;56.23;101732.41;5035623;28;2360;-96
2022/05/08 03:24:32;;;;;;;;;;;;;;;10.98;56.28;101731.75;5028712;28;4899;-96
2022/05/08 03:26:59;;;;;;;;;;;;;;;10.96;56.19;101731.09;5034642;28;5101;-96
2022/05/08 03:29:26;;;;;;;;;;;;;;;10.94;56.36;101735.00;5021333;28;2241;-96
2022/05/08 03:31:52;;;;;;;;;;;;;;;10.93;56.24;101736.03;5020720;28;2368;-96
2022/05/08 03:34:19;;;;;;;;;;;;;;;10.91;56.20;101741.63;5027975;28;2237;-96
2022/05/08 03:36:46;;;;;;;;;;;;;;;10.89;56.29;101747.22;5034222;28;1983;-96
2022/05/08 03:39:13;;;;;;;;;;;;;;;10.88;56.18;101747.38;5029037;28;4688;-96
2022/05/08 03:41:39;;;;;;;;;;;;;;;10.86;56.20;101750.28;5031362;28;1314;-95
2022/05/08 03:44:06;;;;;;;;;;;;;;;10.85;56.12;101755.88;5026827;28;1718;-96
2022/05/08 03:46:32;;;;;;;;;;;;;;;10.83;56.18;101757.94;5032169;28;1326;-96
2022/05/08 03:48:59;;;;;;;;;;;;;;;10.82;56.15;101770.56;5030512;28;2322;-96
2022/05/08 03:51:26;;;;;;;;;;;;;;;10.81;56.09;101763.50;5045291;28;1468;-96
2022/05/08 03:53:52;;;;;;;;;;;;;;;10.79;56.14;101765.53;5023129;28;4301;-96
2022/05/08 03:56:19;;;;;;;;;;;;;;;10.79;56.14;101772.81;5027589;28;1918;-96
2022/05/08 03:58:46;;;;;;;;;;;;;;;10.77;56.13;101775.69;5027313;28;4007;-96
2022/05/08 04:01:12;;;;;;;;;;;;;;;10.76;56.07;101774.00;5026427;28;1968;-96
2022/05/08 04:03:39;;;;;;;;;;;;;;;10.75;56.11;101771.53;5027034;28;2152;-96
2022/05/08 04:06:05;;;;;;;;;;;;;;;10.74;55.95;101775.25;5024317;28;1544;-96
2022/05/08 04:08:33;;;;;;;;;;;;;;;10.72;55.97;101794.28;5024250;28;4832;-95
2022/05/08 04:11:00;;;;;;;;;;;;;;;10.70;55.88;101782.88;5023520;28;2818;-96
2022/05/08 04:13:27;;;;;;;;;;;;;;;10.68;56.03;101787.63;5026052;28;2372;-96
2022/05/08 04:18:37;;;;;;;;;;;;;;;10.67;55.84;101794.84;5018446;28;4946;-96
2022/05/08 04:21:04;;;;;;;;;;;;;;;10.65;56.02;101791.53;5018457;28;1397;-96
2022/05/08 04:26:15;;;;;;;;;;;;;;;10.64;55.77;101800.63;5046621;28;1783;-96
2022/05/08 04:28:43;;;;;;;;;;;;;;;10.62;55.98;101793.78;5019915;28;2577;-96
2022/05/08 04:31:09;;;;;;;;;;;;;;;10.62;55.81;101801.88;5019773;28;1532;-95
2022/05/08 04:33:36;;;;;;;;;;;;;;;10.59;55.78;101803.06;5028218;28;2368;-96
2022/05/08 04:36:02;;;;;;;;;;;;;;;10.58;55.82;101808.63;5033803;28;1997;-95
2022/05/08 04:38:29;;;;;;;;;;;;;;;10.58;55.73;101809.47;5030058;28;3990;-96
2022/05/08 04:40:55;;;;;;;;;;;;;;;10.57;55.73;101810.50;5029093;28;2519;-95
2022/05/08 04:43:22;;;;;;;;;;;;;;;10.56;55.83;101814.22;5029135;28;2238;-96
2022/05/08 04:45:48;;;;;;;;;;;;;;;10.56;55.65;101824.16;5022607;28;2352;-96
2022/05/08 04:48:15;;;;;;;;;;;;;;;10.53;55.82;101814.59;5030220;28;4566;-96
2022/05/08 04:50:42;;;;;;;;;;;;;;;10.54;55.61;101816.25;5037695;28;2346;-95
2022/05/08 04:53:08;;;;;;;;;;;;;;;10.52;55.70;101815.59;5029197;28;5014;-96
2022/05/08 04:55:35;;;;;;;;;;;;;;;10.52;55.60;101818.31;5025197;28;2418;-96
2022/05/08 04:58:02;;;;;;;;;;;;;;;10.51;55.60;101822.03;5032308;28;4946;-96
2022/05/08 05:00:29;;;;;;;;;;;;;;;10.52;55.69;101820.16;5027094;28;2519;-96
2022/05/08 05:02:55;;;;;;;;;;;;;;;10.49;55.49;101818.69;5027909;28;4900;-96
2022/05/08 05:05:22;;;;;;;;;;;;;;;10.48;55.60;101825.09;5026238;28;2605;-95
2022/05/08 05:07:48;;;;;;;;;;;;;;;10.48;55.65;101824.28;5034192;28;1992;-96
2022/05/08 05:10:15;;;;;;;;;;;;;;;10.46;55.54;101833.34;5032880;28;4899;-95
2022/05/08 05:12:41;;;;;;;;;;;;;;;10.47;55.38;101831.53;5031422;28;1998;-95
2022/05/08 05:15:08;;;;;;;;;;;;;;;10.45;55.41;101839.78;5034291;28;1890;-95
2022/05/08 05:17:34;;;;;;;;;;;;;;;10.45;55.44;101842.47;5036604;28;2467;-96
2022/05/08 05:20:01;;;;;;;;;;;;;;;10.44;55.33;101850.72;5046616;28;4735;-96
2022/05/08 05:22:27;;;;;;;;;;;;;;;10.44;55.28;101845.34;5040229;28;1629;-96
2022/05/08 05:24:54;;;;;;;;;;;;;;;10.43;55.39;101851.75;5027462;28;1627;-96
2022/05/08 05:27:20;;;;;;;;;;;;;;;10.41;55.32;101843.88;5018471;28;1222;-95
2022/05/08 05:29:47;;;;;;;;;;;;;;;10.42;55.19;101858.19;5020078;28;5180;-96
2022/05/08 05:32:14;;;;;;;;;;;;;;;10.41;55.10;101856.47;5039706;28;1577;-96
2022/05/08 05:34:41;;;;;;;;;;;;;;;10.39;55.37;101858.56;5023502;28;2061;-96
2022/05/08 05:37:07;;;;;;;;;;;;;;;10.39;55.25;101862.06;5021070;28;1985;-96
2022/05/08 05:39:34;;;;;;;;;;;;;;;10.39;55.03;101864.78;5033329;28;4977;-94
2022/05/08 05:42:01;;;;;;;;;;;;;;;10.37;55.16;101860.59;5029480;28;1309;-96
2022/05/08 05:44:27;;;;;;;;;;;;;;;10.38;55.18;101873.03;5034547;28;1885;-95
2022/05/08 05:49:39;;;;;;;;;;;;;;;10.35;55.04;101873.38;5027280;28;4563;-96
2022/05/08 05:52:07;;;;;;;;;;;;;;;10.34;55.02;101867.19;5035901;28;1484;-96
2022/05/08 05:54:34;;;;;;;;;;;;;;;10.35;55.05;101870.69;5036240;28;1889;-96
2022/05/08 05:57:02;;;;;;;;;;;;;;;10.34;55.09;101877.13;5037664;28;1914;-95
2022/05/08 05:59:28;;;;;;;;;;;;;;;10.33;55.07;101880.84;5028034;28;4820;-96
2022/05/08 06:01:55;;;;;;;;;;;;;;;10.32;54.87;101882.69;5028932;28;1916;-96
2022/05/08 06:04:21;;;;;;;;;;;;;;;10.32;54.96;101874.59;5023708;28;2268;-95
2022/05/08 06:06:48;;;;;;;;;;;;;;;10.31;55.06;101882.88;5027905;28;1840;-96
2022/05/08 06:09:14;;;;;;;;;;;;;;;10.30;55.00;101887.44;5024708;28;4922;-95
2022/05/08 06:11:41;;;;;;;;;;;;;;;10.29;54.89;101893.81;5037924;28;981;-96
2022/05/08 06:14:07;;;;;;;;;;;;;;;10.29;54.85;101896.50;5036240;28;1699;-96
2022/05/08 06:16:35;;;;;;;;;;;;;;;10.27;54.85;101895.88;5023778;28;1944;-95
2022/05/08 06:19:02;;;;;;;;;;;;;;;10.30;54.91;101900.06;5023612;28;4886;-96
2022/05/08 06:21:28;;;;;;;;;;;;;;;10.29;54.77;101903.75;5025678;28;1921;-95
2022/05/08 06:23:55;;;;;;;;;;;;;;;10.27;55.03;101903.13;5031672;28;2423;-95
2022/05/08 06:26:21;;;;;;;;;;;;;;;10.27;54.97;101903.13;5025777;28;2180;-95
2022/05/08 06:28:48;;;;;;;;;;;;;;;10.27;54.74;101905.81;5028823;28;4938;-95
2022/05/08 06:31:17;;;;;;;;;;;;;;;10.27;54.97;101908.50;5035455;28;2115;-95
2022/05/08 06:33:43;;;;;;;;;;;;;;;10.26;54.89;101922.94;5025460;28;2427;-95
2022/05/08 06:36:10;;;;;;;;;;;;;;;10.24;54.94;101910.50;5032101;28;2042;-96
2022/05/08 06:38:37;;;;;;;;;;;;;;;10.24;54.71;101909.69;5032421;28;5007;-95
2022/05/08 06:41:03;;;;;;;;;;;;;;;10.26;54.81;101914.88;5019639;28;2038;-96
2022/05/08 06:43:30;;;;;;;;;;;;;;;10.22;54.87;101917.09;5026007;28;2373;-96
2022/05/08 06:45:56;;;;;;;;;;;;;;;10.23;54.97;101919.63;5033628;28;1844;-96
2022/05/08 06:48:23;;;;;;;;;;;;;;;10.22;54.63;101917.09;5033497;28;4704;-96
2022/05/08 06:50:49;;;;;;;;;;;;;;;10.21;54.73;101916.28;5034593;28;2358;-95
2022/05/08 06:53:16;;;;;;;;;;;;;;;10.21;54.59;101912.75;5033950;28;1998;-95
2022/05/08 06:55:45;;;;;;;;;;;;;;;10.22;53.87;101925.19;5021246;28;1401;-95
2022/05/08 06:58:12;;;;;;;;;;;;;;;10.20;54.63;101924.50;5021630;28;4194;-96
2022/05/08 07:03:23;;;;;;;;;;;;;;;10.17;54.43;101923.03;5029133;28;2439;-96
2022/05/08 07:08:43;;;;;;;;;;;;;;;10.19;54.22;101925.53;5094452;22;3900;-95
2022/05/08 08:10:46;;;;;;;;;;;;;;;10.19;54.35;101961.38;5602650;23;3644;-95
2022/05/08 08:19:11;;;;;;;;;;;;;;;10.19;54.32;101965.94;4950368;29;2015;-96
2022/05/08 08:27:41;;;;;;;;;;;;;;;10.21;54.48;101969.28;4964077;29;2134;-96
2022/05/08 08:30:11;;;;;;;;;;;;;;;10.23;54.34;101970.78;4952037;29;2246;-96
2022/05/08 08:32:37;;;;;;;;;;;;;;;10.23;54.42;101964.53;4943260;28;2482;-96
2022/05/08 08:35:04;;;;;;;;;;;;;;;10.21;54.34;101967.44;4941337;29;5121;-96
2022/05/08 08:37:30;;;;;;;;;;;;;;;10.22;54.42;101971.78;4969691;28;1974;-96
2022/05/08 08:39:57;;;;;;;;;;;;;;;10.21;54.36;101974.66;4941237;29;2200;-95
2022/05/08 08:42:23;;;;;;;;;;;;;;;10.23;54.23;101980.69;4938779;28;2416;-96
2022/05/08 08:47:43;;;;;;;;;;;;;;;10.23;54.27;101984.25;4946205;28;2663;-95
2022/05/08 08:50:10;;;;;;;;;;;;;;;10.24;54.40;101991.28;4938384;28;2617;-95
2022/05/08 08:52:36;;;;;;;;;;;;;;;10.26;54.32;101990.25;4939771;29;2534;-96
2022/05/08 08:55:04;;;;;;;;;;;;;;;10.26;54.43;101987.56;4933098;29;2682;-96
2022/05/08 08:57:30;;;;;;;;;;;;;;;10.26;54.52;101987.56;4921750;29;2346;-96
2022/05/08 08:59:57;;;;;;;;;;;;;;;10.23;54.54;101997.72;4935725;29;2711;-95
2022/05/08 09:02:23;;;;;;;;;;;;;;;10.27;54.61;101992.81;4947953;28;2513;-96
2022/05/08 09:04:50;;;;;;;;;;;;;;;10.27;54.54;101986.59;4932590;29;4540;-96
2022/05/08 09:07:17;;;;;;;;;;;;;;;10.26;54.47;101993.78;4939065;29;2486;-95
2022/05/08 09:09:43;;;;;;;;;;;;;;;10.29;54.41;102000.69;4930875;29;3718;-96
2022/05/08 09:12:10;;;;;;;;;;;;;;;10.27;54.20;102006.28;4933018;29;2502;-96
2022/05/08 09:14:36;;;;;;;;;;;;;;;10.26;54.17;102009.13;4949603;28;4845;-96
2022/05/08 09:17:03;;;;;;;;;;;;;;;10.24;54.26;102007.44;4952059;29;2228;-96
2022/05/08 09:19:29;;;;;;;;;;;;;;;10.25;53.93;102008.28;4945416;29;2481;-96
2022/05/08 09:21:57;;;;;;;;;;;;;;;10.24;54.26;102007.44;4949487;29;2509;-95
2022/05/08 09:24:23;;;;;;;;;;;;;;;10.26;54.09;102011.81;4947850;29;2278;-95
2022/05/08 09:26:51;;;;;;;;;;;;;;;10.26;54.11;102011.81;4949869;28;2209;-96
2022/05/08 09:29:18;;;;;;;;;;;;;;;10.27;54.44;102008.16;4949530;28;2471;-95
2022/05/08 09:31:44;;;;;;;;;;;;;;;10.27;54.63;102013.53;4934636;29;2319;-96
2022/05/08 09:34:11;;;;;;;;;;;;;;;10.27;54.48;102018.91;4930865;29;5042;-96
2022/05/08 09:36:38;;;;;;;;;;;;;;;10.27;54.48;102013.53;4938192;29;3807;-96
2022/05/08 09:39:05;;;;;;;;;;;;;;;10.27;54.58;102010.84;4937748;29;3611;-96
2022/05/08 09:41:32;;;;;;;;;;;;;;;10.27;54.34;102005.44;4937730;29;2095;-96
2022/05/08 09:43:58;;;;;;;;;;;;;;;10.28;54.52;102010.63;4932656;28;4849;-96
2022/05/08 09:46:25;;;;;;;;;;;;;;;10.30;54.59;102005.09;4937109;29;2264;-96
2022/05/08 09:48:51;;;;;;;;;;;;;;;10.29;54.76;102004.22;4930928;29;2272;-96
2022/05/08 09:51:18;;;;;;;;;;;;;;;10.29;54.80;102004.22;4938890;29;2146;-96
2022/05/08 09:53:44;;;;;;;;;;;;;;;10.30;54.79;102000.53;4947799;28;4758;-96
2022/05/08 09:56:10;;;;;;;;;;;;;;;10.31;54.55;101995.97;4955016;28;2640;-96
2022/05/08 09:58:38;;;;;;;;;;;;;;;10.30;54.53;102005.91;4951956;29;2510;-96
2022/05/08 10:01:04;;;;;;;;;;;;;;;10.32;54.67;102003.03;4953286;28;2117;-96
2022/05/08 10:03:31;;;;;;;;;;;;;;;10.32;54.10;102003.84;4936008;28;5034;-96
2022/05/08 10:06:00;;;;;;;;;;;;;;;10.22;54.64;101987.94;4955417;28;2492;-96
2022/05/08 10:08:26;;;;;;;;;;;;;;;10.35;54.65;102013.44;4956583;29;2640;-96
2022/05/08 10:13:56;;;;;;;;;;;;;;;10.35;54.83;101999.97;4936883;29;4072;-96
2022/05/08 10:16:23;;;;;;;;;;;;;;;10.35;54.90;102000.81;4954701;29;1516;-96
2022/05/08 10:18:49;;;;;;;;;;;;;;;10.36;54.84;102001.66;4950189;29;1994;-96
2022/05/08 10:21:16;;;;;;;;;;;;;;;10.36;54.81;101977.41;4954598;29;2145;-96
2022/05/08 10:23:43;;;;;;;;;;;;;;;10.37;54.25;101997.94;4933955;29;5041;-96
2022/05/08 10:26:09;;;;;;;;;;;;;;;10.38;54.68;102003.16;4953200;28;1706;-96
2022/05/08 10:28:36;;;;;;;;;;;;;;;10.39;54.97;101998.59;4942988;29;1765;-95
2022/05/08 10:31:02;;;;;;;;;;;;;;;10.40;54.67;101997.56;4940721;29;1475;-95
2022/05/08 10:33:30;;;;;;;;;;;;;;;10.40;53.43;101993.00;4954456;28;3627;-96
2022/05/08 10:35:56;;;;;;;;;;;;;;;10.41;54.27;102002.78;4940111;29;2138;-95
2022/05/08 10:38:23;;;;;;;;;;;;;;;10.42;54.51;101998.22;4953867;29;2153;-94
2022/05/08 10:40:49;;;;;;;;;;;;;;;10.42;54.49;101993.69;4956539;29;2011;-94
2022/05/08 10:43:19;;;;;;;;;;;;;;;10.43;54.99;102000.72;4938629;28;2474;-93
2022/05/08 10:45:46;;;;;;;;;;;;;;;10.43;55.01;101987.25;4956255;28;2054;-93
2022/05/08 10:48:12;;;;;;;;;;;;;;;10.46;55.11;101992.28;4965416;28;4136;-94
2022/05/08 10:50:39;;;;;;;;;;;;;;;10.47;55.00;101995.84;4957472;29;2272;-94
2022/05/08 10:53:06;;;;;;;;;;;;;;;10.45;55.03;101998.69;4940324;29;2176;-94
2022/05/08 10:55:32;;;;;;;;;;;;;;;10.47;55.16;101998.53;4953635;29;2479;-93
2022/05/08 10:57:59;;;;;;;;;;;;;;;10.48;55.20;102004.75;4935552;28;2199;-93
2022/05/08 11:00:25;;;;;;;;;;;;;;;10.49;55.12;101991.06;4940378;29;2378;-93
2022/05/08 11:02:52;;;;;;;;;;;;;;;10.49;54.99;101993.78;4947823;29;2344;-94
2022/05/08 11:05:18;;;;;;;;;;;;;;;10.51;54.99;101990.91;4956861;28;1430;-94
2022/05/08 11:07:45;;;;;;;;;;;;;;;10.51;55.15;101990.91;4938833;28;4093;-93
2022/05/08 11:10:11;;;;;;;;;;;;;;;10.54;54.98;101993.22;4953857;29;1394;-94
2022/05/08 11:12:38;;;;;;;;;;;;;;;10.54;54.77;101988.66;4953987;28;2131;-93
2022/05/08 11:15:05;;;;;;;;;;;;;;;10.56;53.58;102001.94;4956970;29;2145;-94
2022/05/08 11:17:31;;;;;;;;;;;;;;;10.57;54.52;101991.00;4957516;28;2399;-93
2022/05/08 11:19:58;;;;;;;;;;;;;;;10.58;53.96;101994.53;4941111;29;2221;-93
2022/05/08 11:22:24;;;;;;;;;;;;;;;10.59;54.66;101994.34;4939597;29;2000;-95
2022/05/08 11:24:51;;;;;;;;;;;;;;;10.60;54.50;101996.00;4929299;29;2634;-93
2022/05/08 11:27:17;;;;;;;;;;;;;;;10.61;54.23;101994.16;4957984;29;1441;-93
2022/05/08 11:29:44;;;;;;;;;;;;;;;10.63;54.91;101990.25;4957728;29;1377;-93
2022/05/08 11:37:40;;;;;;;;;;;;;;;10.64;55.34;101985.69;4927468;28;2385;-94
2022/05/08 11:40:06;;;;;;;;;;;;;;;10.65;55.36;101987.38;4929303;29;2528;-93
2022/05/08 11:42:33;;;;;;;;;;;;;;;10.65;55.54;101980.13;4935120;29;2091;-93
2022/05/08 11:44:59;;;;;;;;;;;;;;;10.67;54.88;101978.06;4955971;28;2700;-93
2022/05/08 11:47:26;;;;;;;;;;;;;;;10.68;54.74;101978.94;4941147;29;1875;-92
2022/05/08 11:49:52;;;;;;;;;;;;;;;10.69;55.06;101977.91;4935015;29;4918;-93
2022/05/08 11:52:19;;;;;;;;;;;;;;;10.72;55.17;101977.53;4937786;29;2360;-92
2022/05/08 11:54:46;;;;;;;;;;;;;;;10.74;55.41;101980.06;4948575;29;2166;-92
2022/05/08 11:57:12;;;;;;;;;;;;;;;10.73;55.52;101976.50;4954872;28;2020;-92
2022/05/08 11:59:39;;;;;;;;;;;;;;;10.75;55.63;101979.03;4945865;28;4287;-94
2022/05/08 12:02:05;;;;;;;;;;;;;;;10.76;55.81;101981.50;4929498;29;1435;-93
2022/05/08 12:04:33;;;;;;;;;;;;;;;10.74;55.81;101970.09;4955134;29;2149;-93
2022/05/08 12:07:00;;;;;;;;;;;;;;;10.74;55.74;101970.09;4956802;28;2437;-93
2022/05/08 12:09:26;;;;;;;;;;;;;;;10.77;55.54;101976.97;4967081;28;5012;-92
2022/05/08 12:11:53;;;;;;;;;;;;;;;10.80;55.30;101971.22;4940598;29;2176;-93
2022/05/08 12:14:19;;;;;;;;;;;;;;;10.81;55.62;101971.03;4947003;28;4774;-92
2022/05/08 12:16:46;;;;;;;;;;;;;;;10.82;55.64;101978.06;4936316;29;2786;-95
2022/05/08 12:19:13;;;;;;;;;;;;;;;10.82;55.87;101972.69;4935734;29;2118;-94
2022/05/08 12:21:39;;;;;;;;;;;;;;;10.83;56.02;101971.69;4938209;29;2283;-96
2022/05/08 12:24:05;;;;;;;;;;;;;;;10.86;55.97;101971.31;4938014;29;2573;-94
2022/05/08 12:26:32;;;;;;;;;;;;;;;10.89;56.08;101970.09;4953331;29;2149;-94
2022/05/08 12:28:58;;;;;;;;;;;;;;;10.89;55.96;101970.09;4932523;29;4961;-94
2022/05/08 12:31:25;;;;;;;;;;;;;;;10.90;56.00;101963.66;4951175;29;2533;-94
2022/05/08 12:33:52;;;;;;;;;;;;;;;10.91;55.94;101958.09;4935804;29;2547;-94
2022/05/08 12:36:19;;;;;;;;;;;;;;;10.93;55.92;101957.91;4939451;29;2259;-94
2022/05/08 12:38:45;;;;;;;;;;;;;;;10.95;55.99;101955.88;4934131;28;4852;-94
2022/05/08 12:41:12;;;;;;;;;;;;;;;10.95;56.09;101955.88;4933601;29;2202;-93
2022/05/08 12:43:39;;;;;;;;;;;;;;;10.98;56.14;101968.13;4933590;29;1757;-94
2022/05/08 12:46:05;;;;;;;;;;;;;;;10.99;56.24;101950.94;4956139;28;2083;-94
2022/05/08 12:48:32;;;;;;;;;;;;;;;11.01;56.16;101951.59;4937490;29;2092;-93
2022/05/08 12:50:59;;;;;;;;;;;;;;;11.02;55.95;101953.25;4955096;29;1623;-93
2022/05/08 12:53:25;;;;;;;;;;;;;;;11.03;56.09;101950.38;4938020;29;4938;-93
2022/05/08 12:55:52;;;;;;;;;;;;;;;11.05;55.80;101953.69;4940023;29;2554;-94
2022/05/08 13:01:04;;;;;;;;;;;;;;;11.05;56.30;101956.38;4952626;29;2363;-93
2022/05/08 13:03:30;;;;;;;;;;;;;;;11.08;56.35;101955.19;4936912;29;2747;-94
2022/05/08 13:05:57;;;;;;;;;;;;;;;11.09;56.24;101952.31;4951991;29;2366;-95
2022/05/08 13:08:25;;;;;;;;;;;;;;;11.12;56.36;101948.41;4934613;29;4896;-94
2022/05/08 13:10:52;;;;;;;;;;;;;;;11.13;56.38;101952.75;4952781;28;2046;-91
2022/05/08 13:13:18;;;;;;;;;;;;;;;11.15;56.35;101953.41;4935666;29;2423;-91
2022/05/08 13:15:45;;;;;;;;;;;;;;;11.19;56.24;101948.47;4939738;29;2095;-93
2022/05/08 13:18:12;;;;;;;;;;;;;;;11.19;56.45;101949.31;4930901;29;2484;-92
2022/05/08 13:20:40;;;;;;;;;;;;;;;11.20;56.36;101937.47;4932708;29;4102;-92
2022/05/08 13:23:06;;;;;;;;;;;;;;;11.22;56.35;101935.44;4949925;29;2256;-92
2022/05/08 13:25:33;;;;;;;;;;;;;;;11.24;56.57;101944.19;4936869;29;2572;-93
2022/05/08 13:27:59;;;;;;;;;;;;;;;11.26;56.29;101944.81;4950470;29;2386;-92
2022/05/08 13:30:26;;;;;;;;;;;;;;;11.28;56.50;101947.34;4953124;28;2082;-93
2022/05/08 13:32:53;;;;;;;;;;;;;;;11.30;56.42;101938.03;4940592;28;5052;-94
2022/05/08 13:35:19;;;;;;;;;;;;;;;11.32;56.56;101935.13;4957628;29;4949;-94
2022/05/08 13:37:47;;;;;;;;;;;;;;;11.33;56.55;101936.81;4940295;29;2005;-94
2022/05/08 13:40:13;;;;;;;;;;;;;;;11.35;56.60;101930.22;4929758;29;2025;-95
2022/05/08 13:42:40;;;;;;;;;;;;;;;11.36;56.49;101928.34;4957341;28;2462;-93
2022/05/08 13:45:06;;;;;;;;;;;;;;;11.38;56.56;101926.25;4941495;29;1846;-95
2022/05/08 13:47:33;;;;;;;;;;;;;;;11.40;56.65;101926.91;4941809;28;2139;-95
2022/05/08 13:50:03;;;;;;;;;;;;;;;11.42;56.70;101930.28;4950129;28;5021;-94
2022/05/08 13:52:30;;;;;;;;;;;;;;;11.44;56.48;101922.81;4961255;29;1631;-94
2022/05/08 13:54:56;;;;;;;;;;;;;;;11.46;56.66;101928.84;4962015;29;2288;-94
2022/05/08 13:57:24;;;;;;;;;;;;;;;11.48;56.71;101929.50;4967369;28;2537;-94
2022/05/08 13:59:51;;;;;;;;;;;;;;;11.49;56.74;101924.94;4959663;28;4649;-94
2022/05/08 14:02:18;;;;;;;;;;;;;;;11.50;56.61;101924.75;4972972;28;3911;-94
2022/05/08 14:04:44;;;;;;;;;;;;;;;11.53;56.57;101915.41;4945469;29;2312;-94
2022/05/08 14:07:11;;;;;;;;;;;;;;;11.55;56.64;101914.19;4948122;29;2018;-93
2022/05/08 14:09:37;;;;;;;;;;;;;;;11.57;56.65;101912.16;4944839;29;2791;-93
2022/05/08 14:12:04;;;;;;;;;;;;;;;11.60;56.80;101910.94;4945944;28;4001;-94
2022/05/08 14:14:30;;;;;;;;;;;;;;;11.61;56.77;101915.28;4935713;29;3562;-94
2022/05/08 14:16:58;;;;;;;;;;;;;;;11.63;56.78;101913.25;4938090;29;3578;-95
2022/05/08 14:19:26;;;;;;;;;;;;;;;11.65;56.74;101911.19;4951811;29;2377;-94
2022/05/08 14:21:53;;;;;;;;;;;;;;;11.66;56.75;101904.75;4953892;28;3005;-93
2022/05/08 14:24:19;;;;;;;;;;;;;;;11.68;56.94;101900.00;4940314;29;5014;-94
2022/05/08 14:26:46;;;;;;;;;;;;;;;11.71;56.91;101901.50;4938763;29;3863;-93